N12973 CYKF-CYKF
Flight info
| Callsign | N12973 |
|---|---|
| Flight time | 0h 6m |
| Altitude | VFR/035 |
| Route | VFR EAST |
| Aircraft | C172/L-VGD/C |
Departure
| Time | 2026-05-06 01:35 |
|---|---|
| Airport | Region of Waterloo International Airport (CYKF) |
Arrival
| Time | 2026-05-06 01:42 |
|---|---|
| Airport | Region of Waterloo International Airport (CYKF) |
| Time | Latitude | Longitude | Altitude | Speed | Heading |
|---|---|---|---|---|---|
| 2026-05-06 01:35 | 43.39205 | -80.56371 | 3015 ft | 120 kts | 24° |
| 2026-05-06 01:35 | 43.39910 | -80.55742 | 2903 ft | 119 kts | 36° |
| 2026-05-06 01:35 | 43.40529 | -80.55018 | 2860 ft | 114 kts | 39° |
| 2026-05-06 01:36 | 43.41111 | -80.54316 | 2858 ft | 109 kts | 38° |
| 2026-05-06 01:36 | 43.41699 | -80.53629 | 2687 ft | 112 kts | 40° |
| 2026-05-06 01:36 | 43.42270 | -80.52925 | 2553 ft | 107 kts | 39° |
| 2026-05-06 01:36 | 43.42917 | -80.52669 | 2512 ft | 100 kts | 334° |
| 2026-05-06 01:37 | 43.43225 | -80.53458 | 2454 ft | 102 kts | 266° |
| 2026-05-06 01:37 | 43.42823 | -80.54233 | 2376 ft | 109 kts | 205° |
| 2026-05-06 01:37 | 43.42102 | -80.54027 | 2460 ft | 106 kts | 139° |
| 2026-05-06 01:37 | 43.41857 | -80.53051 | 2487 ft | 113 kts | 85° |
| 2026-05-06 01:38 | 43.42069 | -80.52055 | 2601 ft | 111 kts | 70° |
| 2026-05-06 01:38 | 43.42283 | -80.50936 | 2401 ft | 130 kts | 78° |
| 2026-05-06 01:38 | 43.42458 | -80.49659 | 2171 ft | 133 kts | 79° |
| 2026-05-06 01:38 | 43.42652 | -80.48435 | 2126 ft | 130 kts | 73° |
| 2026-05-06 01:39 | 43.42950 | -80.47339 | 2259 ft | 117 kts | 64° |
| 2026-05-06 01:39 | 43.43266 | -80.46372 | 2440 ft | 107 kts | 65° |
| 2026-05-06 01:39 | 43.43609 | -80.45410 | 2393 ft | 115 kts | 64° |
| 2026-05-06 01:39 | 43.43943 | -80.44432 | 2119 ft | 108 kts | 65° |
| 2026-05-06 01:40 | 43.44245 | -80.43523 | 1836 ft | 104 kts | 66° |
| 2026-05-06 01:40 | 43.44522 | -80.42621 | 1579 ft | 100 kts | 67° |
| 2026-05-06 01:40 | 43.44798 | -80.41831 | 1438 ft | 84 kts | 64° |
| 2026-05-06 01:40 | 43.45077 | -80.41067 | 1358 ft | 84 kts | 63° |
| 2026-05-06 01:41 | 43.45289 | -80.40443 | 1289 ft | 65 kts | 62° |
| 2026-05-06 01:41 | 43.45491 | -80.39891 | 1182 ft | 64 kts | 67° |
| 2026-05-06 01:41 | 43.45672 | -80.39319 | 1150 ft | 63 kts | 66° |
| 2026-05-06 01:41 | 43.45856 | -80.38788 | 1039 ft | 51 kts | 64° |
| 2026-05-06 01:42 | 43.45943 | -80.38535 | 1029 ft | 9 kts | 64° |
| 2026-05-06 01:42 | 43.45954 | -80.38500 | 1030 ft | 10 kts | 60° |
| 2026-05-06 01:42 | 43.46014 | -80.38316 | 1031 ft | 20 kts | 69° |
| 2026-05-06 01:42 | 43.46087 | -80.38067 | 1031 ft | 42 kts | 64° |
| 2026-05-06 01:43 | 43.46237 | -80.37618 | 1040 ft | 58 kts | 66° |
| 2026-05-06 01:43 | 43.46396 | -80.37150 | 1045 ft | 30 kts | 65° |
| 2026-05-06 01:43 | 43.46432 | -80.37060 | 1047 ft | 0 kts | 227° |
| 2026-05-06 01:43 | 43.46385 | -80.37165 | 1045 ft | 5 kts | 241° |
| 2026-05-06 01:44 | 43.46305 | -80.37173 | 1044 ft | 9 kts | 195° |
| 2026-05-06 01:44 | 43.46302 | -80.37174 | 1044 ft | 0 kts | 192° |
| 2026-05-06 01:47 | 43.46299 | -80.37175 | 1044 ft | 0 kts | 193° |
| 2026-05-06 01:47 | 43.46275 | -80.37177 | 1044 ft | 3 kts | 211° |
| 2026-05-06 01:47 | 43.46243 | -80.37193 | 1044 ft | 2 kts | 214° |
| 2026-05-06 01:48 | 43.46241 | -80.37195 | 1044 ft | 0 kts | 212° |
| 2026-05-06 01:48 | 43.46240 | -80.37194 | 1044 ft | 0 kts | 112° |
| 2026-05-06 01:48 | 43.46238 | -80.37191 | 1044 ft | 0 kts | 156° |
| 2026-05-06 01:49 | 43.46236 | -80.37192 | 1044 ft | 2 kts | 225° |
| 2026-05-06 01:49 | 43.46209 | -80.37257 | 1043 ft | 10 kts | 246° |
| 2026-05-06 01:49 | 43.46163 | -80.37390 | 1040 ft | 18 kts | 246° |
| 2026-05-06 01:49 | 43.46109 | -80.37549 | 1038 ft | 18 kts | 245° |
| 2026-05-06 01:50 | 43.46062 | -80.37693 | 1035 ft | 3 kts | 254° |
| 2026-05-06 01:50 | 43.46062 | -80.37696 | 1034 ft | 4 kts | 252° |
| 2026-05-06 01:50 | 43.46000 | -80.37871 | 1033 ft | 32 kts | 246° |
| 2026-05-06 01:50 | 43.45904 | -80.38156 | 1029 ft | 32 kts | 241° |
| 2026-05-06 01:51 | 43.45812 | -80.38419 | 1027 ft | 29 kts | 247° |
| 2026-05-06 01:51 | 43.45769 | -80.38548 | 1027 ft | 0 kts | 249° |
| 2026-05-06 01:51 | 43.45758 | -80.38560 | 1027 ft | 11 kts | 202° |
| 2026-05-06 01:52 | 43.45730 | -80.38569 | 1027 ft | 0 kts | 192° |
| 2026-05-06 01:52 | 43.45707 | -80.38617 | 1027 ft | 17 kts | 252° |
| 2026-05-06 01:52 | 43.45691 | -80.38793 | 1025 ft | 24 kts | 238° |
| 2026-05-06 01:52 | 43.45610 | -80.38854 | 1024 ft | 11 kts | 139° |
| 2026-05-06 01:53 | 43.45580 | -80.38796 | 1025 ft | 2 kts | 62° |
| 2026-05-06 01:53 | 43.45585 | -80.38811 | 1024 ft | 0 kts | 275° |